createdAt,value
2022-09-23T00:01:46.988Z,3.83
2022-09-23T00:03:49.250Z,3.95
2022-09-23T00:06:13.593Z,6.38
2022-09-23T00:08:15.062Z,4.47
2022-09-23T00:14:55.388Z,4.85
2022-09-23T00:16:56.887Z,4.03
2022-09-23T00:18:58.657Z,7.57
2022-09-23T00:21:09.152Z,6.05
2022-09-23T00:23:10.610Z,6.70
2022-09-23T00:25:12.462Z,4.22
2022-09-23T00:27:14.042Z,3.60
2022-09-23T00:29:16.048Z,3.50
2022-09-23T00:31:23.458Z,4.40
2022-09-23T00:33:24.921Z,5.32
2022-09-23T00:35:26.371Z,5.65
2022-09-23T00:37:28.680Z,3.60
2022-09-23T00:39:30.239Z,3.55
2022-09-23T00:41:32.423Z,3.50
2022-09-23T00:43:41.253Z,3.70
2022-09-23T00:47:53.257Z,5.07
2022-09-23T00:50:06.141Z,5.18
2022-09-23T00:52:13.468Z,4.47
2022-09-23T00:54:14.957Z,8.75
2022-09-23T00:56:16.731Z,7.05
2022-09-23T00:58:25.000Z,7.38
2022-09-23T01:00:26.686Z,3.60
2022-09-23T01:02:28.399Z,7.90
2022-09-23T01:04:30.890Z,8.40
2022-09-23T01:06:32.919Z,5.03
2022-09-23T01:08:34.625Z,4.40
2022-09-23T01:11:01.116Z,6.72
2022-09-23T01:13:16.168Z,4.05
2022-09-23T01:15:36.028Z,9.38
2022-09-23T01:17:41.701Z,4.80
2022-09-23T01:20:03.310Z,5.82
2022-09-23T01:22:31.582Z,7.15
2022-09-23T01:25:02.123Z,3.90
2022-09-23T01:27:30.957Z,4.35
2022-09-23T01:29:50.967Z,7.30
2022-09-23T01:32:17.211Z,3.70
2022-09-23T01:34:34.469Z,3.70
2022-09-23T01:37:11.585Z,4.18
2022-09-23T01:39:37.635Z,7.50
2022-09-23T01:41:53.858Z,10.70
2022-09-23T01:44:34.931Z,3.65
2022-09-23T01:46:51.661Z,6.72
2022-09-23T01:49:02.249Z,4.00
2022-09-23T01:51:09.315Z,5.63
2022-09-23T01:53:21.346Z,5.55
2022-09-23T01:55:30.903Z,3.17
2022-09-23T01:57:46.891Z,5.47
2022-09-23T01:59:53.562Z,4.00
2022-09-23T02:02:07.470Z,4.18
2022-09-23T02:04:18.834Z,6.63
2022-09-23T02:06:26.484Z,7.55
2022-09-23T02:08:34.627Z,11.88
2022-09-23T02:10:53.191Z,4.43
2022-09-23T02:13:00.028Z,4.93
2022-09-23T02:15:07.025Z,8.18
2022-09-23T02:17:12.978Z,4.70
2022-09-23T02:19:24.237Z,5.88
2022-09-23T02:21:33.877Z,5.60
2022-09-23T02:23:42.461Z,4.22
2022-09-23T02:25:49.027Z,3.70
2022-09-23T02:28:14.876Z,3.60
2022-09-23T02:30:22.004Z,3.70
2022-09-23T02:32:44.747Z,5.35
2022-09-23T02:34:49.167Z,4.10
2022-09-23T02:37:06.441Z,4.68
2022-09-23T02:39:12.700Z,5.55
2022-09-23T02:41:32.623Z,6.15
2022-09-23T02:43:51.551Z,4.28
2022-09-23T02:45:53.048Z,4.18
2022-09-23T02:48:07.637Z,7.90
2022-09-23T02:50:09.596Z,5.00
2022-09-23T02:52:13.652Z,6.78
2022-09-23T02:54:19.583Z,3.05
2022-09-23T02:56:21.916Z,4.32
2022-09-23T02:58:23.460Z,4.93
2022-09-23T03:00:29.677Z,5.63
2022-09-23T03:02:49.237Z,4.05
2022-09-23T03:05:09.791Z,4.68
2022-09-23T03:07:24.263Z,3.28
2022-09-23T03:09:40.166Z,5.38
2022-09-23T03:11:50.459Z,5.93
2022-09-23T03:14:06.680Z,3.85
2022-09-23T03:16:17.419Z,4.95
2022-09-23T03:18:21.623Z,3.55
2022-09-23T03:20:50.543Z,3.75
2022-09-23T03:22:57.733Z,4.78
2022-09-23T03:25:07.113Z,3.78
2022-09-23T03:27:19.173Z,6.18
2022-09-23T03:29:23.377Z,4.05
2022-09-23T03:31:25.360Z,3.88
2022-09-23T03:33:28.761Z,4.00
2022-09-23T03:35:33.896Z,4.32
2022-09-23T03:37:51.099Z,4.18
2022-09-23T03:39:57.227Z,5.95
2022-09-23T03:42:02.790Z,3.20
2022-09-23T03:44:07.097Z,3.55
2022-09-23T03:46:08.739Z,2.80
2022-09-23T03:48:10.275Z,4.03
2022-09-23T03:50:17.305Z,13.00
2022-09-23T03:52:21.336Z,5.07
2022-09-23T03:54:22.809Z,3.42
2022-09-23T03:56:24.235Z,3.17
2022-09-23T03:58:25.674Z,3.17
2022-09-23T04:00:27.721Z,5.03
2022-09-23T04:02:29.283Z,4.85
2022-09-23T04:04:32.407Z,4.50
2022-09-23T04:06:34.062Z,6.53
2022-09-23T04:08:35.543Z,4.35
2022-09-23T04:10:41.360Z,3.70
2022-09-23T04:12:42.838Z,5.75
2022-09-23T04:14:44.997Z,4.13
2022-09-23T04:16:47.410Z,6.18
2022-09-23T04:18:49.044Z,3.30
2022-09-23T04:20:50.504Z,3.65
2022-09-23T04:22:51.949Z,6.57
2022-09-23T04:24:53.400Z,3.67
2022-09-23T04:26:56.638Z,4.07
2022-09-23T04:28:58.358Z,4.05
2022-09-23T04:31:03.601Z,3.03
2022-09-23T04:33:05.103Z,3.75
2022-09-23T04:35:07.357Z,5.90
2022-09-23T04:37:09.029Z,6.05
2022-09-23T04:39:11.447Z,6.28
2022-09-23T04:41:13.489Z,3.85
2022-09-23T04:43:16.280Z,3.55
2022-09-23T04:45:17.727Z,5.85
2022-09-23T04:47:19.337Z,3.10
2022-09-23T04:49:20.980Z,4.00
2022-09-23T04:51:23.908Z,3.67
2022-09-23T04:53:25.472Z,3.28
2022-09-23T04:55:26.972Z,3.42
2022-09-23T04:57:29.796Z,6.72
2022-09-23T04:59:31.303Z,2.80
2022-09-23T05:01:34.648Z,3.63
2022-09-23T05:03:36.549Z,3.35
2022-09-23T05:05:38.078Z,5.25
2022-09-23T05:07:40.393Z,5.63
2022-09-23T05:09:41.821Z,6.30
2022-09-23T05:11:43.918Z,5.00
2022-09-23T05:13:48.428Z,5.53
2022-09-23T05:15:49.943Z,3.22
2022-09-23T05:17:51.419Z,4.00
2022-09-23T05:19:52.865Z,4.57
2022-09-23T05:21:54.288Z,3.53
2022-09-23T05:23:59.039Z,3.75
2022-09-23T05:26:03.743Z,4.63
2022-09-23T05:28:05.183Z,3.22
2022-09-23T05:30:07.405Z,2.80
2022-09-23T05:32:09.799Z,3.08
2022-09-23T05:34:11.352Z,5.70
2022-09-23T05:36:13.527Z,3.65
2022-09-23T05:38:16.820Z,7.60
2022-09-23T05:40:18.274Z,8.15
2022-09-23T05:42:21.156Z,3.63
2022-09-23T05:44:22.580Z,3.40
2022-09-23T05:46:27.881Z,4.38
2022-09-23T05:48:34.507Z,5.40
2022-09-23T05:50:35.924Z,3.25
2022-09-23T05:52:37.420Z,15.48
2022-09-23T05:54:39.235Z,9.95
2022-09-23T05:56:40.705Z,6.65
2022-09-23T05:58:42.400Z,3.25
2022-09-23T06:00:44.118Z,5.57
2022-09-23T06:02:48.759Z,3.10
2022-09-23T06:04:50.230Z,3.47
2022-09-23T06:06:51.666Z,3.80
2022-09-23T06:08:53.149Z,7.03
2022-09-23T06:10:54.869Z,5.15
2022-09-23T06:12:56.782Z,3.25
2022-09-23T06:14:58.473Z,5.30
2022-09-23T06:17:00.125Z,3.88
2022-09-23T06:19:06.178Z,7.40
2022-09-23T06:21:10.056Z,4.20
2022-09-23T06:23:11.685Z,8.70
2022-09-23T06:25:13.268Z,6.35
2022-09-23T06:27:14.779Z,3.00
2022-09-23T06:29:16.315Z,3.40
2022-09-23T06:31:18.102Z,4.13
2022-09-23T06:33:31.365Z,5.80
2022-09-23T06:35:36.956Z,7.32
2022-09-23T06:37:38.479Z,6.93
2022-09-23T06:39:39.990Z,3.47
2022-09-23T06:41:41.516Z,7.07
2022-09-23T06:43:43.009Z,4.75
2022-09-23T06:45:44.700Z,7.60
2022-09-23T06:47:47.103Z,5.28
2022-09-23T06:49:48.536Z,9.48
2022-09-23T06:51:50.413Z,3.88
2022-09-23T06:53:52.477Z,5.95
2022-09-23T06:56:07.531Z,4.55
2022-09-23T06:58:09.833Z,6.60
2022-09-23T07:00:13.123Z,3.60
2022-09-23T07:02:14.734Z,3.83
2022-09-23T07:04:16.298Z,4.35
2022-09-23T07:06:17.766Z,3.78
2022-09-23T07:08:19.223Z,6.32
2022-09-23T07:10:20.701Z,7.03
2022-09-23T07:12:22.117Z,7.70
2022-09-23T07:14:24.463Z,3.75
2022-09-23T07:16:26.110Z,4.13
2022-09-23T07:18:36.477Z,4.18
2022-09-23T07:20:38.511Z,4.32
2022-09-23T07:22:40.013Z,7.85
2022-09-23T07:24:41.485Z,4.18
2022-09-23T07:26:45.678Z,5.60
2022-09-23T07:28:47.325Z,5.82
2022-09-23T07:30:58.171Z,2.97
2022-09-23T07:33:00.268Z,6.07
2022-09-23T07:35:01.765Z,5.63
2022-09-23T07:37:03.253Z,5.63
2022-09-23T07:39:05.171Z,4.97
2022-09-23T07:41:09.291Z,2.80
2022-09-23T07:43:10.799Z,5.72
2022-09-23T07:45:12.991Z,6.13
2022-09-23T07:47:14.539Z,5.40
2022-09-23T07:49:16.177Z,4.32
2022-09-23T07:51:20.823Z,4.30
2022-09-23T07:53:23.380Z,2.38
2022-09-23T07:55:25.841Z,10.73
2022-09-23T07:57:27.335Z,3.25
2022-09-23T07:59:28.801Z,4.40
2022-09-23T08:01:42.926Z,2.40
2022-09-23T08:03:45.474Z,3.72
2022-09-23T08:05:47.022Z,4.80
2022-09-23T08:07:49.454Z,2.13
2022-09-23T08:09:51.007Z,5.55
2022-09-23T08:11:52.986Z,3.55
2022-09-23T08:13:54.760Z,5.25
2022-09-23T08:15:56.538Z,2.53
2022-09-23T08:17:59.834Z,4.22
2022-09-23T08:20:01.594Z,7.93
2022-09-23T08:22:03.038Z,2.63
2022-09-23T08:24:08.457Z,6.97
2022-09-23T08:26:18.111Z,2.15
2022-09-23T08:28:21.994Z,1.83
2022-09-23T08:30:23.469Z,7.70
2022-09-23T08:32:24.893Z,4.60
2022-09-23T08:34:27.683Z,1.95
2022-09-23T08:36:29.193Z,7.72
2022-09-23T08:38:30.683Z,7.63
2022-09-23T08:40:42.114Z,2.17
2022-09-23T08:42:45.547Z,7.05
2022-09-23T08:44:48.975Z,3.08
2022-09-23T08:47:17.016Z,1.40
2022-09-23T08:49:30.913Z,4.80
2022-09-23T08:51:48.699Z,4.13
2022-09-23T08:53:50.285Z,1.85
2022-09-23T08:55:54.413Z,2.45
2022-09-23T08:58:26.177Z,1.35
2022-09-23T09:00:43.662Z,4.13
2022-09-23T09:02:45.691Z,2.75
2022-09-23T09:05:12.865Z,3.05
2022-09-23T09:07:37.735Z,4.00
2022-09-23T09:09:55.061Z,2.45
2022-09-23T09:12:07.212Z,2.55
2022-09-23T09:14:46.332Z,4.05
2022-09-23T09:17:00.008Z,1.75
2022-09-23T09:19:03.600Z,4.75
2022-09-23T09:21:11.399Z,1.70
2022-09-23T09:23:34.924Z,3.53
2022-09-23T09:25:44.769Z,1.73
2022-09-23T09:27:47.637Z,1.80
2022-09-23T09:29:52.311Z,2.70
2022-09-23T09:31:54.083Z,4.75
2022-09-23T09:34:15.790Z,3.78
2022-09-23T09:36:39.882Z,4.07
2022-09-23T09:38:41.349Z,1.45
2022-09-23T09:40:47.466Z,1.95
2022-09-23T09:42:50.391Z,2.47
2022-09-23T09:44:58.467Z,4.75
2022-09-23T09:47:28.647Z,2.05
2022-09-23T09:50:01.910Z,1.52
2022-09-23T09:52:26.327Z,5.05
2022-09-23T09:54:28.741Z,2.55
2022-09-23T09:56:35.776Z,5.65
2022-09-23T09:58:41.068Z,2.35
2022-09-23T10:00:46.130Z,2.65
2022-09-23T10:02:53.121Z,1.98
2022-09-23T10:05:07.404Z,2.88
2022-09-23T10:07:26.117Z,2.38
2022-09-23T10:09:34.540Z,1.80
2022-09-23T10:11:36.744Z,2.20
2022-09-23T10:13:38.246Z,6.40
2022-09-23T10:15:45.017Z,4.65
2022-09-23T10:17:51.294Z,2.03
2022-09-23T10:20:15.042Z,3.70
2022-09-23T10:22:24.332Z,3.30
2022-09-23T10:24:30.387Z,4.72
2022-09-23T10:26:44.652Z,4.03
2022-09-23T10:28:50.486Z,3.05
2022-09-23T10:31:06.921Z,3.60
2022-09-23T10:33:26.972Z,2.35
2022-09-23T10:35:29.676Z,2.50
2022-09-23T10:37:33.084Z,3.17
2022-09-23T10:39:53.130Z,4.65
2022-09-23T10:42:22.156Z,1.95
2022-09-23T10:45:30.088Z,2.33
2022-09-23T10:49:58.520Z,2.95
2022-09-23T10:52:18.270Z,4.95
2022-09-23T10:54:37.248Z,3.10
2022-09-23T10:57:36.021Z,5.70
2022-09-23T10:59:51.726Z,3.67
2022-09-23T11:02:02.074Z,2.88
2022-09-23T11:04:34.385Z,3.63
2022-09-23T11:06:38.734Z,1.48
2022-09-23T11:08:51.393Z,2.60
2022-09-23T11:11:12.895Z,4.18
2022-09-23T11:13:24.528Z,2.78
2022-09-23T11:15:44.466Z,3.05
2022-09-23T11:17:54.902Z,3.28
2022-09-23T11:20:05.343Z,2.05
2022-09-23T11:22:48.636Z,7.88
2022-09-23T11:25:24.730Z,3.20
2022-09-23T11:27:52.078Z,2.08
2022-09-23T11:30:07.104Z,1.85
2022-09-23T11:32:35.191Z,3.20
2022-09-23T11:34:55.045Z,2.17
2022-09-23T11:37:09.144Z,2.47
2022-09-23T11:39:36.551Z,3.20
2022-09-23T11:41:39.817Z,2.17
2022-09-23T11:43:44.525Z,3.35
2022-09-23T11:46:02.484Z,5.88
2022-09-23T11:48:26.837Z,1.30
2022-09-23T11:50:49.008Z,4.90
2022-09-23T11:53:02.052Z,2.75
2022-09-23T11:55:20.937Z,2.42
2022-09-23T11:57:49.872Z,4.03
2022-09-23T11:59:59.931Z,3.72
2022-09-23T12:02:19.233Z,3.67
2022-09-23T12:04:55.007Z,2.40
2022-09-23T12:07:01.449Z,5.93
2022-09-23T12:09:12.526Z,3.30
2022-09-23T12:11:39.233Z,2.72
2022-09-23T12:13:55.101Z,4.90
2022-09-23T12:16:05.362Z,2.80
2022-09-23T12:18:25.529Z,2.80
2022-09-23T12:20:48.312Z,3.65
2022-09-23T12:23:14.057Z,2.75
2022-09-23T12:25:36.939Z,4.53
2022-09-23T12:27:46.611Z,4.55
2022-09-23T12:29:51.868Z,2.35
2022-09-23T12:31:53.510Z,2.08
2022-09-23T12:33:55.294Z,7.50
2022-09-23T12:36:25.196Z,6.20
2022-09-23T12:38:35.269Z,3.40
2022-09-23T12:40:43.870Z,4.15
2022-09-23T12:42:47.028Z,3.35
2022-09-23T12:44:49.120Z,2.80
2022-09-23T12:47:13.369Z,9.27
2022-09-23T12:49:28.848Z,4.60
2022-09-23T12:51:34.980Z,4.68
2022-09-23T12:53:36.352Z,2.65
2022-09-23T12:55:41.518Z,2.45
2022-09-23T12:57:43.045Z,5.13
2022-09-23T12:59:59.827Z,3.65
2022-09-23T13:02:24.693Z,4.13
2022-09-23T13:05:01.993Z,2.90
2022-09-23T13:07:08.694Z,2.10
2022-09-23T13:09:16.834Z,2.05
2022-09-23T13:11:22.807Z,3.00
2022-09-23T13:13:40.866Z,7.78
2022-09-23T13:15:42.346Z,1.92
2022-09-23T13:17:44.332Z,5.32
2022-09-23T13:19:46.301Z,3.35
2022-09-23T13:21:49.464Z,4.15
2022-09-23T13:24:12.528Z,1.90
2022-09-23T13:26:15.513Z,3.83
2022-09-23T13:29:04.608Z,5.40
2022-09-23T13:31:13.711Z,4.53
2022-09-23T13:33:46.575Z,6.28
2022-09-23T13:35:51.004Z,4.15
2022-09-23T13:37:53.473Z,2.47
2022-09-23T13:40:07.960Z,2.17
2022-09-23T13:42:25.609Z,4.85
2022-09-23T13:44:28.033Z,4.77
2022-09-23T13:46:38.228Z,5.25
2022-09-23T13:48:43.449Z,3.50
2022-09-23T13:50:53.400Z,2.97
2022-09-23T13:52:57.938Z,3.22
2022-09-23T13:54:59.478Z,4.72
2022-09-23T13:57:00.997Z,3.15
2022-09-23T13:59:24.666Z,3.65
2022-09-23T14:01:33.556Z,3.90
2022-09-23T14:03:37.378Z,4.18
2022-09-23T14:05:38.928Z,2.03
2022-09-23T14:07:40.436Z,1.63
2022-09-23T14:09:44.665Z,3.05
2022-09-23T14:11:46.363Z,6.07
2022-09-23T14:13:54.929Z,3.33
2022-09-23T14:18:06.253Z,4.18
2022-09-23T14:20:14.682Z,7.18
2022-09-23T14:22:25.254Z,2.42
2022-09-23T14:24:29.738Z,2.25
2022-09-23T14:26:31.392Z,2.40
2022-09-23T14:28:33.154Z,2.78
2022-09-23T14:30:34.982Z,1.58
2022-09-23T14:32:38.980Z,4.38
2022-09-23T14:34:51.048Z,4.35
2022-09-23T14:37:11.195Z,2.33
2022-09-23T14:39:12.728Z,2.58
2022-09-23T14:41:23.731Z,2.88
2022-09-23T14:43:28.136Z,3.38
2022-09-23T14:45:40.547Z,6.57
2022-09-23T14:48:00.848Z,4.07
2022-09-23T14:50:21.267Z,5.93
2022-09-23T14:52:22.729Z,2.60
2022-09-23T14:54:39.470Z,2.65
2022-09-23T14:56:42.244Z,2.42
2022-09-23T14:58:58.121Z,3.42
2022-09-23T15:01:02.309Z,3.92
2022-09-23T15:03:14.722Z,5.82
2022-09-23T15:05:21.263Z,7.97
2022-09-23T15:07:23.800Z,3.63
2022-09-23T15:09:41.534Z,3.35
2022-09-23T15:11:43.059Z,1.50
2022-09-23T15:13:49.385Z,4.35
2022-09-23T15:15:55.117Z,4.25
2022-09-23T15:18:04.333Z,2.80
2022-09-23T15:20:16.147Z,5.28
2022-09-23T15:22:18.312Z,4.15
2022-09-23T15:24:38.530Z,2.85
2022-09-23T15:26:49.295Z,6.03
2022-09-23T15:28:53.693Z,5.10
2022-09-23T15:30:55.192Z,2.63
2022-09-23T15:32:56.638Z,4.25
2022-09-23T15:34:58.071Z,4.95
2022-09-23T15:36:59.539Z,2.53
2022-09-23T15:39:02.872Z,4.25
2022-09-23T15:41:04.409Z,3.80
2022-09-23T15:43:20.918Z,4.63
2022-09-23T15:45:45.201Z,3.25
2022-09-23T15:47:48.192Z,3.80
2022-09-23T15:49:49.742Z,2.67
2022-09-23T15:51:52.085Z,6.28
2022-09-23T15:53:55.184Z,4.55
2022-09-23T15:55:58.555Z,4.32
2022-09-23T15:58:00.372Z,4.70
2022-09-23T16:00:01.847Z,4.43
2022-09-23T16:02:07.841Z,4.55
2022-09-23T16:04:10.169Z,3.03
2022-09-23T16:06:13.459Z,11.45
2022-09-23T16:08:15.869Z,2.47
2022-09-23T16:10:17.500Z,4.63
2022-09-23T16:12:18.943Z,3.95
2022-09-23T16:14:20.462Z,3.67
2022-09-23T16:16:22.097Z,3.78
2022-09-23T16:18:23.606Z,9.25
2022-09-23T16:20:29.605Z,4.30
2022-09-23T16:22:31.152Z,3.67
2022-09-23T16:24:32.868Z,5.30
2022-09-23T16:26:35.959Z,3.70
2022-09-23T16:28:37.808Z,6.35
2022-09-23T16:30:39.245Z,4.60
2022-09-23T16:32:40.682Z,5.68
2022-09-23T16:34:42.149Z,2.88
2022-09-23T16:36:43.671Z,4.63
2022-09-23T16:38:45.088Z,4.57
2022-09-23T16:40:47.440Z,5.63
2022-09-23T16:42:52.021Z,4.35
2022-09-23T16:44:53.514Z,5.03
2022-09-23T16:46:54.953Z,6.65
2022-09-23T16:48:57.628Z,3.53
2022-09-23T16:51:04.483Z,3.00
2022-09-23T16:53:06.127Z,3.25
2022-09-23T16:55:11.256Z,3.78
2022-09-23T16:57:13.266Z,6.68
2022-09-23T16:59:15.961Z,7.05
2022-09-23T17:01:41.264Z,3.45
2022-09-23T17:03:47.205Z,3.88
2022-09-23T17:05:49.432Z,6.13
2022-09-23T17:07:50.873Z,6.15
2022-09-23T17:09:52.426Z,3.65
2022-09-23T17:12:26.941Z,7.43
2022-09-23T17:14:30.071Z,8.90
2022-09-23T17:16:34.374Z,8.15
2022-09-23T17:18:35.949Z,6.88
2022-09-23T17:20:38.717Z,5.57
2022-09-23T17:22:41.118Z,6.90
2022-09-23T17:24:42.819Z,9.18
2022-09-23T17:26:50.579Z,8.50
2022-09-23T17:28:56.179Z,7.47
2022-09-23T17:31:02.587Z,8.35
2022-09-23T17:33:04.080Z,7.03
2022-09-23T17:35:06.278Z,6.82
2022-09-23T17:37:07.772Z,7.82
2022-09-23T17:39:09.240Z,6.30
2022-09-23T17:41:12.074Z,7.78
2022-09-23T17:43:13.534Z,6.38
2022-09-23T17:45:15.152Z,7.07
2022-09-23T17:47:16.586Z,4.97
2022-09-23T17:49:18.176Z,8.15
2022-09-23T17:51:19.848Z,7.45
2022-09-23T17:53:21.685Z,5.88
2022-09-23T17:55:23.155Z,8.20
2022-09-23T17:57:24.624Z,5.25
2022-09-23T17:59:39.604Z,5.75
2022-09-23T18:01:41.164Z,5.70
2022-09-23T18:03:43.498Z,5.20
2022-09-23T18:05:45.024Z,9.73
2022-09-23T18:07:46.450Z,4.55
2022-09-23T18:09:47.883Z,6.68
2022-09-23T18:11:49.755Z,6.60
2022-09-23T18:13:57.091Z,7.07
2022-09-23T18:16:02.364Z,5.15
2022-09-23T18:18:05.428Z,5.40
2022-09-23T18:20:07.564Z,4.63
2022-09-23T18:22:09.012Z,5.20
2022-09-23T18:24:31.228Z,6.22
2022-09-23T18:26:33.435Z,5.38
2022-09-23T18:28:35.132Z,6.95
2022-09-23T18:30:36.614Z,7.00
2022-09-23T18:32:38.078Z,5.05
2022-09-23T18:34:39.513Z,8.73
2022-09-23T18:36:41.036Z,12.35
2022-09-23T18:38:42.474Z,8.70
2022-09-23T18:40:56.152Z,7.25
2022-09-23T18:42:57.838Z,14.85
2022-09-23T18:44:59.363Z,4.95
2022-09-23T18:47:00.792Z,5.55
2022-09-23T18:49:20.770Z,6.40
2022-09-23T18:51:28.456Z,5.63
2022-09-23T18:53:32.280Z,8.23
2022-09-23T18:55:35.461Z,7.00
2022-09-23T18:57:37.360Z,6.20
2022-09-23T18:59:38.869Z,4.75
2022-09-23T19:01:40.731Z,10.52
2022-09-23T19:03:42.959Z,6.07
2022-09-23T19:05:44.427Z,5.78
2022-09-23T19:07:45.878Z,6.57
2022-09-23T19:09:47.379Z,9.63
2022-09-23T19:11:52.643Z,9.80
2022-09-23T19:13:55.405Z,10.32
2022-09-23T19:16:02.282Z,11.75
2022-09-23T19:18:03.810Z,13.90
2022-09-23T19:20:05.881Z,12.13
2022-09-23T19:22:07.351Z,10.48
2022-09-23T19:24:14.344Z,10.98
2022-09-23T19:26:18.682Z,12.75
2022-09-23T19:28:20.729Z,12.10
2022-09-23T19:30:22.150Z,18.73
2022-09-23T19:32:25.967Z,11.20
2022-09-23T19:34:29.307Z,11.07
2022-09-23T19:36:35.287Z,11.68
2022-09-23T19:38:38.316Z,8.82
2022-09-23T19:40:39.831Z,12.90
2022-09-23T19:42:42.935Z,11.48
2022-09-23T19:44:44.376Z,16.13
2022-09-23T19:46:53.551Z,7.88
2022-09-23T19:48:58.530Z,10.73
2022-09-23T19:51:01.043Z,9.13
2022-09-23T19:53:05.092Z,8.88
2022-09-23T19:55:07.252Z,8.52
2022-09-23T19:57:09.008Z,9.65
2022-09-23T19:59:11.787Z,10.07
2022-09-23T20:01:16.307Z,12.20
2022-09-23T20:03:18.268Z,10.43
2022-09-23T20:05:20.517Z,8.93
2022-09-23T20:07:21.987Z,8.85
2022-09-23T20:09:23.534Z,11.43
2022-09-23T20:11:28.660Z,7.97
2022-09-23T20:13:31.431Z,8.40
2022-09-23T20:15:32.916Z,9.27
2022-09-23T20:17:34.572Z,9.48
2022-09-23T20:19:36.053Z,10.25
2022-09-23T20:21:37.660Z,8.73
2022-09-23T20:23:39.117Z,8.70
2022-09-23T20:25:59.099Z,9.75
2022-09-23T20:28:00.582Z,8.00
2022-09-23T20:30:02.771Z,10.00
2022-09-23T20:32:04.504Z,7.53
2022-09-23T20:34:07.027Z,9.63
2022-09-23T20:36:10.442Z,8.23
2022-09-23T20:38:11.869Z,9.60
2022-09-23T20:40:13.370Z,9.60
2022-09-23T20:42:16.336Z,12.40
2022-09-23T20:44:17.840Z,12.73
2022-09-23T20:46:19.319Z,9.10
2022-09-23T20:48:22.419Z,12.70
2022-09-23T20:50:23.892Z,13.52
2022-09-23T20:52:25.365Z,10.60
2022-09-23T20:54:26.827Z,12.70
2022-09-23T20:56:29.164Z,13.57
2022-09-23T20:58:36.119Z,11.68
2022-09-23T21:00:37.622Z,11.75
2022-09-23T21:02:39.084Z,9.63
2022-09-23T21:04:40.570Z,15.07
2022-09-23T21:06:41.982Z,10.48
2022-09-23T21:08:44.607Z,9.10
2022-09-23T21:10:53.997Z,8.75
2022-09-23T21:12:55.413Z,9.70
2022-09-23T21:14:56.849Z,10.35
2022-09-23T21:16:59.412Z,12.27
2022-09-23T21:19:02.891Z,10.88
2022-09-23T21:21:06.200Z,11.60
2022-09-23T21:23:08.008Z,11.63
2022-09-23T21:25:27.474Z,13.40
2022-09-23T21:27:30.557Z,12.07
2022-09-23T21:29:32.186Z,15.93
2022-09-23T21:31:36.103Z,9.10
2022-09-23T21:33:37.831Z,14.52
2022-09-23T21:35:40.328Z,11.80
2022-09-23T21:37:41.733Z,11.63
2022-09-23T21:40:03.124Z,14.80
2022-09-23T21:42:06.021Z,11.25
2022-09-23T21:44:08.394Z,10.30
2022-09-23T21:46:12.958Z,11.65
2022-09-23T21:48:14.444Z,11.30
2022-09-23T21:50:15.977Z,12.57
2022-09-23T21:52:17.406Z,11.55
2022-09-23T21:54:19.063Z,13.63
2022-09-23T21:56:23.560Z,12.65
2022-09-23T21:58:26.615Z,11.55
2022-09-23T22:00:28.092Z,11.82
2022-09-23T22:02:29.609Z,12.57
2022-09-23T22:04:32.182Z,11.88
2022-09-23T22:06:36.280Z,12.45
2022-09-23T22:08:40.192Z,12.18
2022-09-23T22:10:41.635Z,12.40
2022-09-23T22:12:43.078Z,14.05
2022-09-23T22:14:47.149Z,12.30
2022-09-23T22:16:48.700Z,13.15
2022-09-23T22:18:57.185Z,14.13
2022-09-23T22:20:59.183Z,20.73
2022-09-23T22:23:00.641Z,12.70
2022-09-23T22:25:02.057Z,15.32
2022-09-23T22:27:03.599Z,18.63
2022-09-23T22:29:26.045Z,15.15
2022-09-23T22:31:45.804Z,14.52
2022-09-23T22:33:50.109Z,15.45
2022-09-23T22:35:52.098Z,16.25
2022-09-23T22:37:54.670Z,14.52
2022-09-23T22:39:56.201Z,19.38
2022-09-23T22:41:58.844Z,14.05
2022-09-23T22:44:00.532Z,16.92
2022-09-23T22:46:02.421Z,18.65
2022-09-23T22:48:04.704Z,16.60
2022-09-23T22:50:08.085Z,17.55
2022-09-23T22:52:11.302Z,16.33
2022-09-23T22:54:12.880Z,20.67
2022-09-23T22:56:15.231Z,17.63
2022-09-23T22:58:31.669Z,19.48
2022-09-23T23:00:33.490Z,17.27
2022-09-23T23:02:35.083Z,22.90
2022-09-23T23:04:37.172Z,17.48
2022-09-23T23:06:39.342Z,17.27
2022-09-23T23:08:40.767Z,18.15
2022-09-23T23:10:42.191Z,17.38
2022-09-23T23:12:44.006Z,17.08
2022-09-23T23:14:46.996Z,17.88
2022-09-23T23:16:48.519Z,15.50
2022-09-23T23:18:50.024Z,16.38
2022-09-23T23:20:51.559Z,15.80
2022-09-23T23:22:53.009Z,16.58
2022-09-23T23:24:54.732Z,17.00
2022-09-23T23:26:56.194Z,17.08
2022-09-23T23:28:58.519Z,19.58
2022-09-23T23:31:05.236Z,19.27
2022-09-23T23:33:06.730Z,22.27
2022-09-23T23:35:08.964Z,18.58
2022-09-23T23:37:10.398Z,17.15
2022-09-23T23:39:13.403Z,17.73
2022-09-23T23:41:17.410Z,19.95
2022-09-23T23:43:24.969Z,18.85
2022-09-23T23:45:26.400Z,18.13
2022-09-23T23:47:27.868Z,18.45
2022-09-23T23:49:29.329Z,19.63
2022-09-23T23:51:30.940Z,24.42
2022-09-23T23:53:36.779Z,18.38
2022-09-23T23:55:38.788Z,18.67
2022-09-23T23:57:40.201Z,19.45
2022-09-23T23:59:41.661Z,19.33
